Aviation Digital Data Service (ADDS)

Output produced by METARs form (0957 UTC 19 January 2019)
found at http://www.aviationweather.gov/metar/data/
 
KAIG 190935Z AUTO 02007KT 10SM SCT095 BKN120 M17/M20 A3025 RMK AO2 T11661203
KATW 190935Z AUTO 02013KT 3SM -SN SCT033 OVC040 M13/M17 A3024 RMK AO2
KATW 190525Z 1906/2006 04012KT 2SM -SN OVC016 
     FM190800 03011G16KT 5SM -SN OVC022 
     FM191000 02011KT P6SM -SHSN OVC028 
     FM191100 02011KT P6SM -SHSN BKN035 
     FM191500 02010G16KT P6SM SCT100 
     FM192300 36009KT P6SM SCT250
       
KASX 190953Z AUTO 17003KT 8SM OVC033 M14/M17 A3039 RMK AO2 SLP314 T11441172
KDLL 190955Z AUTO 04010KT 2 1/2SM -SN SCT012 BKN032 OVC039 M13/M15 A3022 RMK AO2 T11271149
KBCK 190955Z AUTO 02006KT 7SM SCT032 BKN044 OVC050 M12/M15 A3028 RMK AO2 T11231155
KOVS 190953Z AUTO 04007KT 3SM -SN OVC042 M09/M12 A3022 RMK AO2 SLP249 P0000 T10891122
KBUU 190955Z AUTO 04009KT 3SM -SN M05/M07 A3011 RMK AO2 SKY OBSCURED T10551070
KY23 190955Z AUTO 03004KT 10SM CLR M15/M20 A3033 RMK AO2 T11501198
KCLI 190955Z AUTO 02008KT 7SM -SN OVC040 M13/M18 A3029 RMK AO2 T11321179
KUBE 190935Z AUTO 36006KT 10SM CLR M17/M20 A3032 RMK AO2
KEGV 190955Z AUTO 00000KT 10SM OVC020 M20/M23 A3026 RMK AO2 T12021231
K57C 190955Z AUTO 05008KT 3SM -SN SCT011 BKN016 OVC022 M05/M07 A3012 RMK AO2 T10551066
KFLD 190953Z AUTO 01016KT 1 3/4SM -SN BR OVC014 M12/M14 A3024 RMK AO2 SLP257 P0000 T11221144
KGRB 190953Z AUTO 01011KT 2 1/2SM -SN OVC036 M12/M16 A3029 RMK AO2 SLP271 P0000 T11221161 $
KGRB 190525Z 1906/2006 03011KT 3SM -SN OVC028 
     FM190800 02011KT P6SM -SN OVC030 
     FM191100 02011KT P6SM -SHSN BKN035 
     FM191500 02011G16KT P6SM SCT050 
     FM191700 01010KT P6SM SCT150
       
KHYR 190953Z AUTO 36005KT 10SM FEW018 OVC026 M16/M19 A3034 RMK AO2 SLP306 T11611189
KHYR 190538Z 1906/2006 02007KT P6SM BKN020 OVC100 
     FM191400 34004KT P6SM SCT020 
     FM200100 VRB02KT P6SM SCT018
       
KJVL 190955Z AUTO 36013G19KT 2 1/2SM -SN CLR M08/M10 A3012 RMK AO2
KUNU 190955Z AUTO 36015G19KT 3SM -SN OVC014 M12/M14 A3020 RMK AO2 T11181137 TSNO
KENW 190953Z AUTO 06020G26KT 3/4SM -SN BR VV009 M03/M04 A3010 RMK AO2 PK WND 06027/0901 SLP204 P0000 T10331044 $
KENW 190543Z 1906/2006 06014G20KT 1/2SM SN BLSN OVC009 
     TEMPO 1906/1910 1SM -SN BLSN OVC010 
     FM191000 06016G24KT 1SM -SN BLSN OVC009 
     FM191500 05017G26KT 2SM -SN BLSN OVC010 
     FM191800 04016G24KT 4SM -SN BLSN OVC015 
     FM192200 02017G26KT 6SM -SN BLSN OVC025
       
KLSE 190953Z AUTO 01010KT 4SM -SN OVC044 M11/M14 A3028 RMK AO2 SLP276 P0000 T11061139
KLSE 190520Z 1906/2006 36006KT 1 1/2SM -SN OVC022 
     FM190800 01007KT 3SM -SN OVC025 
     FM191000 35006KT 6SM -SN BKN040 
     FM191500 34011KT P6SM SKC
       
KRCX 190955Z AUTO 03006KT 10SM CLR M16/M20 A3033 RMK AO2 T11581200
KLNL 190955Z AUTO 36003KT 10SM SCT020 M20/M23 A3029 RMK AO2 T12051227
K4R5 190955Z AUTO 00000KT 10SM OVC038 M14/M17 A3040 RMK AO2 T11401173
KLNR 190903Z AUTO 03011KT 4SM -SN OVC035 M10/M13 A3022 RMK AO2 P0000 T11001128
KMSN 190953Z AUTO 02015G24KT 2SM -SN BR OVC022 M12/M14 A3019 RMK AO2 SLP240 P0001 T11171139
KMSN 190543Z 1906/2006 03014G20KT 1SM -SN BLSN OVC012 
     TEMPO 1906/1910 1/2SM SN BLSN OVC010 
     FM191000 03014G20KT 3SM -SN BLSN OVC015 
     FM191300 03013G19KT P6SM OVC025 
     FM191500 02012G19KT P6SM OVC035 
     FM200300 36009KT P6SM FEW250
       
KD25 190935Z AUTO 00000KT 10SM BKN021 M23/M25 A3028 RMK AO2 T12281253
KMTW 190956Z AUTO 35011KT 1 3/4SM -SN BR OVC016 M12/M14 A3025 RMK AO2 SLP268 P0000 T11171139 FZRANO
KMTW 190525Z 1906/2006 01012G18KT 1 1/2SM -SHSN OVC014 
     FM191300 02012KT 2SM -SHSN OVC019 
     FM191600 02013G18KT 5SM -SHSN OVC022 
     FM192000 36012G19KT P6SM -SHSN BKN090
       
KMFI 190954Z AUTO 05007KT 10SM SCT055 BKN070 OVC085 M14/M17 A3024 RMK AO2 SNE20 SLP269 P0000 T11391172 $
KMDZ 190955Z AUTO 03008KT 10SM CLR M17/M21 A3025 RMK AO2 T11681207 TSNO
KLUM 190955Z AUTO 36007KT 10SM CLR M16/M21 A3034 RMK AO2 T11601212
KRRL 190955Z AUTO 01005KT 10SM SCT070 SCT090 M16/M21 A3029 RMK AO2 T11641209 TSNO
KC29 190935Z AUTO 03016G20KT 3SM SCT008 BKN025 OVC042 M10/M12 A3018 RMK AO1 T11051124
KMKE 190952Z 06016G26KT 1/2SM SN BR SCT005 OVC009 M04/M07 A3015 RMK AO2 PK WND 04027/0913 SLP220 P0002 T10391067 RVRNO
KMKE 190836Z 1909/2012 05016G23KT 3/4SM -SN BR BKN009 OVC013 
     TEMPO 1909/1913 1/2SM SN BLSN OVC008 
     FM192000 03017G25KT 5SM -SN BLSN OVC015 
     FM192200 02017G25KT 6SM -SN BLSN OVC025 
     FM200500 35015G20KT 6SM -SN BLSN BKN060 
     FM200900 35013G19KT P6SM SCT100
       
KMWC 190955Z AUTO 01011G17KT 1 3/4SM -SN OVC014 M08/M11 A3017 RMK AO2
KMRJ 190935Z AUTO 03013G20KT 10SM -SN CLR M09/M10 A3013 RMK AO2
KARV 190955Z AUTO 36003KT 10SM BKN019 BKN120 M18/M21 A3027 RMK AO2 T11851209
KEFT 190955Z AUTO 5SM -SN SCT018 M10/M12 A3011 RMK AO2 T11021124
KCWA 190955Z AUTO 02008KT 7SM BKN060 OVC075 M14/M18 A3026 RMK AO2
KCWA 190525Z 1906/2006 05009KT 5SM -SN OVC030 
     FM190700 05008KT 6SM -SN OVC030 
     FM190900 03008KT P6SM BKN060 
     FM191000 02008KT P6SM SCT110 
     FM191600 36007KT P6SM SKC
       
K82C 190955Z AUTO 36004KT 2 1/2SM -SN BKN029 OVC035 M13/M15 A3024 RMK AO2 T11261150
KRNH 190955Z AUTO 01007KT 10SM CLR M16/M20 A3035 RMK AO2 T11621202
KRNH 190925Z 1909/2006 36009KT P6SM FEW100 
     FM192100 33007KT P6SM SKC
       
KOCQ 190935Z AUTO 36009KT 10SM OVC022 M14/M18 A3032 RMK AO1 T11361180
KOEO 190935Z AUTO 35006KT 10SM CLR M17/M20 A3040 RMK AO2 T11671205
KOSH 190953Z AUTO 02013KT 2SM -SN OVC031 M12/M15 A3024 RMK AO2 SLP267 P0000 T11221150
KPBH 190955Z AUTO 03005KT 10SM CLR M19/M22 A3028 RMK AO2 T11861218
KPVB 190935Z AUTO 03015G21KT 10SM SCT022 OVC050 M09/M10 A3014 RMK AO1 T10911102
KPDC 190955Z AUTO 03005KT 7SM -SN BKN028 OVC032 M08/M12 A3021 RMK AO2 T10851120
KRAC 190953Z AUTO 06016G25KT 1 1/4SM -SN BR SCT007 BKN015 OVC023 M04/M06 A3014 RMK AO2 SLP217 P0000 T10391056
KC35 190955Z AUTO 03008KT 4SM -SN SCT027 OVC034 M12/M15 A3023 RMK AO2 T11251150
KRHI 190953Z AUTO 04003KT 10SM FEW018 M19/M23 A3025 RMK AO2 SLP286 T11891228
KRHI 190525Z 1906/2006 03005KT P6SM SCT100 
     FM191300 36005KT P6SM SCT250 
     FM200000 35006KT P6SM SCT070 
     FM200400 36005KT P6SM SCT090
       
KRPD 190955Z AUTO 02008KT 10SM CLR M15/M18 A3034 RMK AO2 T11471184
KEZS 190955Z AUTO 03009KT 10SM OVC020 M12/M17 A3030 RMK AO2 T11231173
KSBM 190953Z AUTO 36010KT 2SM -SN OVC024 M11/M14 A3021 RMK AO2 SLP246 P0000 T11111139
KRZN 190935Z AUTO 36004KT 10SM BKN023 BKN090 OVC120 M19/M23 A3039 RMK AO2 T11871230
KOLG 190955Z AUTO 32003KT 10SM OVC025 M19/M23 A3036 RMK AO1
KCMY 190935Z AUTO 00000KT 3SM -SN CLR M11/M13 A3027 RMK AO2 T11151135
KSTE 190935Z AUTO 02008KT 5SM -SN OVC038 M15/M18 A3027 RMK AO2 T11501177
KSUE 190956Z AUTO 01013G21KT 10SM OVC021 M12/M15 A3029 RMK AO2 SNB30E43 SLP282 P0000 T11171150 FZRANO
KSUW 190955Z AUTO 23003KT 10SM CLR M23/M27 A3045 RMK AO2 T12271271
KTKV 190935Z AUTO 00000KT 10SM CLR M19/M22 A3028 RMK AO2 T11911222
KY51 190955Z AUTO 03015KT 3SM OVC031 M11/M12 A3020 RMK AO1 T11131125
KRYV 190955Z AUTO 01012G16KT 2 1/2SM -SN BKN022 OVC027 M11/M12 A3017 RMK AO2 T11081121
KUES 190935Z AUTO 02011G16KT 2SM -SN SCT013 OVC019 M10/M11 A3015 RMK AO2
KUES 190543Z 1906/2006 05011G19KT 1SM -SN BLSN OVC012 
     TEMPO 1906/1910 1/2SM SN BLSN OVC010 
     FM191400 03013G19KT 2SM -SN BLSN OVC012 
     FM191700 03014G20KT 5SM -SN OVC012 
     FM192300 01014G22KT P6SM BKN040 
     FM200400 36013G18KT P6SM SCT150
       
KPCZ 190955Z AUTO 01007KT 4SM -SN OVC021 M12/M16 A3028 RMK AO2 T11221157
KAUW 190954Z AUTO 01008KT 10SM FEW075 BKN090 M15/M21 A3025 RMK AO2 SLP277 T11501206
KAUW 190525Z 1906/2006 05007KT P6SM OVC045 
     FM190900 02007KT P6SM SCT120 
     FM191500 01007KT P6SM SKC 
     FM192000 35007KT P6SM SKC
       
KY50 190956Z AUTO 03009KT 4SM -SN BR OVC034 M13/M16 A3026 RMK AO2 SLP275 P0000 T11331156
KETB 190935Z AUTO 01009G17KT 2 1/2SM -SN BKN018 OVC024 M10/M11 A3018 RMK AO2
KISW 190954Z AUTO 04008KT 5SM -SN OVC046 M13/M18 A3027 RMK AO2 SLP273 P0000 T11331178 TSNO